Time;durP1;ratioP1;P1;durP2;ratioP2;P2;SDS_P1;SDS_P2;PMS_P1;PMS_P2;Temp;Humidity;BMP_temperature;BMP_pressure;BME280_temperature;BME280_humidity;BME280_pressure;Samples;Min_cycle;Max_cycle;Signal;HPM_P1;HPM_P2
2023/10/27 00:02:17;;;;;;;15.20;6.73;;;;;;;;;;5037015;28;20076;-79
2023/10/27 00:04:43;;;;;;;16.77;6.27;;;;;;;;;;5023602;28;20018;-78
2023/10/27 00:07:17;;;;;;;19.00;6.33;;;;;;;;;;5019789;28;20022;-77
2023/10/27 00:09:43;;;;;;;15.43;6.50;;;;;;;;;;5037304;28;20006;-78
2023/10/27 00:12:09;;;;;;;14.07;6.27;;;;;;;;;;5022611;28;20018;-79
2023/10/27 00:14:35;;;;;;;16.93;6.70;;;;;;;;;;5045049;28;20005;-77
2023/10/27 00:17:06;;;;;;;16.10;6.47;;;;;;;;;;5020462;28;20017;-76
2023/10/27 00:19:34;;;;;;;18.47;5.83;;;;;;;;;;5018755;28;20044;-77
2023/10/27 00:22:02;;;;;;;12.03;6.53;;;;;;;;;;5037553;28;20018;-76
2023/10/27 00:24:31;;;;;;;21.00;7.03;;;;;;;;;;5023028;28;20021;-76
2023/10/27 00:26:57;;;;;;;22.33;6.23;;;;;;;;;;5038026;28;20061;-77
2023/10/27 00:29:23;;;;;;;15.97;5.80;;;;;;;;;;5018538;28;20029;-77
2023/10/27 00:31:57;;;;;;;14.33;5.53;;;;;;;;;;5018618;28;20022;-76
2023/10/27 00:34:25;;;;;;;13.83;5.60;;;;;;;;;;5034984;28;20021;-75
2023/10/27 00:36:53;;;;;;;15.83;5.63;;;;;;;;;;5019248;28;20051;-76
2023/10/27 00:39:22;;;;;;;13.63;5.27;;;;;;;;;;5021265;28;20034;-77
2023/10/27 00:41:48;;;;;;;12.33;4.10;;;;;;;;;;5020865;28;20022;-76
2023/10/27 00:44:18;;;;;;;12.43;4.43;;;;;;;;;;5019129;28;20010;-78
2023/10/27 00:46:52;;;;;;;14.60;4.37;;;;;;;;;;5037035;28;20026;-79
2023/10/27 00:49:18;;;;;;;13.30;3.50;;;;;;;;;;5035740;28;20034;-78
2023/10/27 00:51:46;;;;;;;12.07;3.17;;;;;;;;;;5035798;28;20028;-77
2023/10/27 00:54:15;;;;;;;14.60;3.57;;;;;;;;;;5014261;28;20021;-76
2023/10/27 00:56:44;;;;;;;15.30;3.73;;;;;;;;;;5017009;28;20022;-77
2023/10/27 00:59:13;;;;;;;12.37;3.27;;;;;;;;;;5017577;28;20022;-76
2023/10/27 01:01:51;;;;;;;15.80;4.23;;;;;;;;;;5031296;28;20014;-80
2023/10/27 01:04:17;;;;;;;15.27;3.50;;;;;;;;;;5017655;28;20022;-77
2023/10/27 01:06:51;;;;;;;11.23;3.97;;;;;;;;;;5017283;28;20030;-76
2023/10/27 01:09:17;;;;;;;16.87;3.43;;;;;;;;;;5033622;28;20026;-76
2023/10/27 01:11:45;;;;;;;12.37;2.90;;;;;;;;;;5035093;28;20033;-79
2023/10/27 01:14:11;;;;;;;12.13;3.30;;;;;;;;;;5017648;28;20006;-76
2023/10/27 01:16:39;;;;;;;16.43;3.90;;;;;;;;;;5034796;28;21081;-79
2023/10/27 01:19:05;;;;;;;10.30;3.93;;;;;;;;;;5017569;28;20030;-79
2023/10/27 01:21:41;;;;;;;21.70;3.53;;;;;;;;;;5033951;28;20030;-77
2023/10/27 01:24:07;;;;;;;12.03;3.37;;;;;;;;;;5017351;28;20017;-77
2023/10/27 01:26:35;;;;;;;11.70;3.07;;;;;;;;;;5014842;28;20037;-78
2023/10/27 01:29:04;;;;;;;9.77;3.07;;;;;;;;;;5016912;28;20028;-77
2023/10/27 01:31:30;;;;;;;10.27;2.97;;;;;;;;;;5017226;28;20018;-76
2023/10/27 01:33:56;;;;;;;11.57;3.43;;;;;;;;;;5033406;28;20026;-76
2023/10/27 01:36:22;;;;;;;14.60;3.07;;;;;;;;;;5016980;28;20018;-77
2023/10/27 01:38:48;;;;;;;19.23;3.70;;;;;;;;;;5016828;28;20048;-76
2023/10/27 01:41:17;;;;;;;13.33;2.70;;;;;;;;;;5017388;28;20026;-76
2023/10/27 01:43:43;;;;;;;9.10;3.10;;;;;;;;;;5034460;28;20006;-77
2023/10/27 01:46:09;;;;;;;13.70;3.53;;;;;;;;;;5016668;28;20049;-77
2023/10/27 01:48:36;;;;;;;17.60;3.57;;;;;;;;;;5034361;28;20072;-77
2023/10/27 01:51:04;;;;;;;10.97;2.73;;;;;;;;;;5034249;28;20026;-77
2023/10/27 01:53:38;;;;;;;7.77;2.53;;;;;;;;;;5030616;28;20040;-76
2023/10/27 01:56:11;;;;;;;15.07;3.10;;;;;;;;;;5032936;28;20014;-77
2023/10/27 01:58:45;;;;;;;12.90;2.90;;;;;;;;;;5030727;28;20037;-76
2023/10/27 02:01:15;;;;;;;11.83;2.80;;;;;;;;;;5016937;28;20017;-76
2023/10/27 02:03:41;;;;;;;14.50;2.90;;;;;;;;;;5017105;28;20041;-78
2023/10/27 02:06:07;;;;;;;31.00;4.93;;;;;;;;;;5016517;28;20041;-78
2023/10/27 02:08:36;;;;;;;9.27;2.93;;;;;;;;;;5017156;28;20057;-76
2023/10/27 02:11:02;;;;;;;13.87;2.77;;;;;;;;;;5029152;28;20028;-76
2023/10/27 02:13:29;;;;;;;13.10;2.83;;;;;;;;;;5032562;28;20089;-77
2023/10/27 02:15:55;;;;;;;13.83;2.87;;;;;;;;;;5016763;28;20081;-76
2023/10/27 02:18:23;;;;;;;14.47;3.40;;;;;;;;;;5014512;28;20048;-77
2023/10/27 02:20:49;;;;;;;13.67;2.43;;;;;;;;;;5015558;28;20056;-77
2023/10/27 02:23:21;;;;;;;14.83;3.20;;;;;;;;;;5030551;28;20014;-78
2023/10/27 02:25:47;;;;;;;18.23;3.77;;;;;;;;;;5028939;28;20021;-77
2023/10/27 02:28:13;;;;;;;11.83;2.83;;;;;;;;;;5033775;28;20179;-77
2023/10/27 02:30:42;;;;;;;9.03;2.93;;;;;;;;;;5018079;28;20105;-78
2023/10/27 02:33:10;;;;;;;16.73;3.10;;;;;;;;;;5020870;28;20029;-77
2023/10/27 02:35:36;;;;;;;11.87;2.63;;;;;;;;;;5035115;28;20017;-77
2023/10/27 02:38:04;;;;;;;16.60;3.23;;;;;;;;;;5020675;28;20033;-76
2023/10/27 02:40:38;;;;;;;11.23;2.37;;;;;;;;;;5017068;28;20014;-76
2023/10/27 02:43:07;;;;;;;11.53;2.90;;;;;;;;;;5020207;28;20041;-76
2023/10/27 02:45:36;;;;;;;16.03;2.93;;;;;;;;;;5037564;28;20014;-76
2023/10/27 02:48:02;;;;;;;17.30;2.80;;;;;;;;;;5023525;28;20050;-77
2023/10/27 02:50:28;;;;;;;9.97;2.60;;;;;;;;;;5023832;28;20022;-78
2023/10/27 02:52:54;;;;;;;11.17;3.03;;;;;;;;;;5024049;28;20018;-77
2023/10/27 02:55:22;;;;;;;8.83;2.90;;;;;;;;;;5025044;28;20024;-79
2023/10/27 02:57:55;;;;;;;13.27;3.53;;;;;;;;;;5021817;28;20030;-78
2023/10/27 03:00:21;;;;;;;22.40;3.20;;;;;;;;;;5024337;28;20010;-76
2023/10/27 03:02:55;;;;;;;15.43;3.17;;;;;;;;;;5024698;28;20036;-76
2023/10/27 03:05:21;;;;;;;15.57;5.37;;;;;;;;;;5038289;28;20052;-76
2023/10/27 03:07:47;;;;;;;12.47;3.40;;;;;;;;;;5039476;28;20021;-78
2023/10/27 03:10:21;;;;;;;18.47;5.40;;;;;;;;;;5022399;28;20010;-76
2023/10/27 03:12:49;;;;;;;15.10;3.03;;;;;;;;;;5022812;28;20026;-77
2023/10/27 03:15:20;;;;;;;10.60;3.70;;;;;;;;;;5040914;28;20018;-76
2023/10/27 03:17:54;;;;;;;19.43;4.33;;;;;;;;;;5021792;28;20089;-78
2023/10/27 03:20:20;;;;;;;10.90;3.70;;;;;;;;;;5023576;28;20026;-76
2023/10/27 03:22:48;;;;;;;15.43;4.37;;;;;;;;;;5038871;28;20029;-77
2023/10/27 03:25:14;;;;;;;10.53;3.90;;;;;;;;;;5038087;28;20032;-76
2023/10/27 03:27:42;;;;;;;20.87;5.03;;;;;;;;;;5039483;28;20045;-77
2023/10/27 03:30:09;;;;;;;11.50;2.97;;;;;;;;;;5020303;28;20025;-76
2023/10/27 03:32:37;;;;;;;15.03;3.70;;;;;;;;;;5024352;28;20211;-76
2023/10/27 03:35:03;;;;;;;11.60;4.13;;;;;;;;;;5023085;28;20086;-77
2023/10/27 03:37:29;;;;;;;10.23;3.53;;;;;;;;;;5022137;28;20042;-76
2023/10/27 03:39:58;;;;;;;11.83;3.70;;;;;;;;;;5020431;28;20048;-76
2023/10/27 03:42:27;;;;;;;13.40;3.73;;;;;;;;;;5019244;28;20061;-77
2023/10/27 03:44:55;;;;;;;10.57;3.43;;;;;;;;;;5039419;28;20018;-77
2023/10/27 03:47:21;;;;;;;12.17;3.90;;;;;;;;;;5040376;28;20038;-76
2023/10/27 03:49:57;;;;;;;16.87;5.07;;;;;;;;;;5021332;28;20074;-76
2023/10/27 03:52:26;;;;;;;11.37;5.30;;;;;;;;;;5022154;28;20017;-78
2023/10/27 03:54:52;;;;;;;15.47;4.43;;;;;;;;;;5023639;28;20038;-77
2023/10/27 03:57:18;;;;;;;12.37;3.60;;;;;;;;;;5038477;28;20083;-77
2023/10/27 03:59:47;;;;;;;14.83;4.10;;;;;;;;;;5024006;28;20038;-76
2023/10/27 04:02:15;;;;;;;11.87;3.90;;;;;;;;;;5022293;28;20052;-78
2023/10/27 04:04:58;;;;;;;14.27;5.00;;;;;;;;;;5020561;28;20018;-76
2023/10/27 04:07:25;;;;;;;12.30;3.67;;;;;;;;;;5021434;28;20033;-77
2023/10/27 04:09:55;;;;;;;10.83;3.47;;;;;;;;;;5038080;28;20013;-76
2023/10/27 04:12:29;;;;;;;13.10;4.00;;;;;;;;;;5036918;28;20044;-77
2023/10/27 04:14:59;;;;;;;18.23;4.07;;;;;;;;;;5037752;28;20021;-76
2023/10/27 04:17:33;;;;;;;17.77;4.20;;;;;;;;;;5035436;28;20018;-76
2023/10/27 04:20:06;;;;;;;11.23;3.33;;;;;;;;;;5039067;28;20078;-76
2023/10/27 04:22:35;;;;;;;11.67;3.57;;;;;;;;;;5039878;28;20010;-77
2023/10/27 04:25:06;;;;;;;16.30;3.43;;;;;;;;;;5019623;28;20195;-77
2023/10/27 04:27:32;;;;;;;12.53;3.63;;;;;;;;;;5020235;28;20037;-76
2023/10/27 04:29:58;;;;;;;18.93;4.50;;;;;;;;;;5021160;28;20030;-76
2023/10/27 04:32:26;;;;;;;7.50;2.90;;;;;;;;;;5019547;28;20025;-77
2023/10/27 04:34:52;;;;;;;15.17;4.13;;;;;;;;;;5019278;28;20032;-78
2023/10/27 04:37:18;;;;;;;13.93;3.63;;;;;;;;;;5037279;28;20087;-76
2023/10/27 04:39:44;;;;;;;20.00;4.97;;;;;;;;;;5021118;28;20034;-77
2023/10/27 04:42:10;;;;;;;16.40;4.10;;;;;;;;;;5035740;28;20045;-78
2023/10/27 04:44:36;;;;;;;12.47;3.50;;;;;;;;;;5017783;28;20027;-79
2023/10/27 04:47:02;;;;;;;15.00;4.03;;;;;;;;;;5032653;28;20048;-79
2023/10/27 04:49:28;;;;;;;11.70;4.20;;;;;;;;;;5022090;28;20041;-77
2023/10/27 04:51:55;;;;;;;11.63;4.17;;;;;;;;;;5022288;28;20045;-79
2023/10/27 04:54:21;;;;;;;18.17;5.07;;;;;;;;;;5037624;28;20034;-77
2023/10/27 04:56:49;;;;;;;9.43;3.77;;;;;;;;;;5022505;28;20033;-77
2023/10/27 04:59:15;;;;;;;11.93;3.80;;;;;;;;;;5022012;28;20010;-77
2023/10/27 05:01:41;;;;;;;15.40;3.43;;;;;;;;;;5038328;28;20022;-80
2023/10/27 05:04:07;;;;;;;16.83;4.90;;;;;;;;;;5038572;28;20040;-78
2023/10/27 05:06:33;;;;;;;14.63;5.33;;;;;;;;;;5021782;28;20054;-79
2023/10/27 05:08:59;;;;;;;15.90;4.67;;;;;;;;;;5022318;28;20010;-80
2023/10/27 05:11:25;;;;;;;13.27;5.07;;;;;;;;;;5020241;28;20018;-75
2023/10/27 05:14:00;;;;;;;15.33;5.33;;;;;;;;;;5018192;28;20014;-82
2023/10/27 05:16:26;;;;;;;13.27;4.87;;;;;;;;;;5038945;28;20024;-78
2023/10/27 05:18:54;;;;;;;14.93;4.50;;;;;;;;;;5034522;28;20037;-79
2023/10/27 05:21:29;;;;;;;21.77;4.90;;;;;;;;;;5029993;28;20033;-79
2023/10/27 05:24:05;;;;;;;20.63;5.50;;;;;;;;;;5039581;28;20033;-81
2023/10/27 05:26:34;;;;;;;14.60;4.90;;;;;;;;;;5039382;28;20030;-76
2023/10/27 05:29:02;;;;;;;15.17;5.73;;;;;;;;;;5014823;28;20014;-76
2023/10/27 05:31:38;;;;;;;15.73;5.77;;;;;;;;;;5011753;28;20038;-78
2023/10/27 05:34:06;;;;;;;20.73;5.77;;;;;;;;;;5020684;28;20002;-76
2023/10/27 05:36:41;;;;;;;18.97;5.83;;;;;;;;;;5021504;28;20093;-79
2023/10/27 05:39:07;;;;;;;18.63;6.23;;;;;;;;;;5021427;28;20021;-76
2023/10/27 05:41:33;;;;;;;16.23;7.00;;;;;;;;;;5021601;28;20022;-77
2023/10/27 05:44:02;;;;;;;20.67;6.33;;;;;;;;;;5017708;28;20029;-76
2023/10/27 05:46:30;;;;;;;21.00;6.73;;;;;;;;;;5019278;28;20066;-75
2023/10/27 05:49:00;;;;;;;22.43;6.67;;;;;;;;;;5017871;28;20026;-77
2023/10/27 05:51:29;;;;;;;18.53;7.00;;;;;;;;;;5021338;28;20022;-77
2023/10/27 05:53:55;;;;;;;24.20;7.63;;;;;;;;;;5021072;28;20014;-77
2023/10/27 05:56:29;;;;;;;47.13;8.93;;;;;;;;;;5020978;28;20053;-80
2023/10/27 05:58:55;;;;;;;27.03;7.23;;;;;;;;;;5021465;28;20010;-77
2023/10/27 06:01:21;;;;;;;20.30;6.87;;;;;;;;;;5017579;28;20042;-76
2023/10/27 06:04:02;;;;;;;29.77;7.67;;;;;;;;;;5020235;28;20022;-76
2023/10/27 06:06:33;;;;;;;28.50;8.97;;;;;;;;;;5016544;28;20042;-76
2023/10/27 06:09:20;;;;;;;;;;;;;;;;;;;;;
2023/10/27 06:11:46;;;;;;;21.20;7.53;;;;;;;;;;5036477;28;20022;-77
2023/10/27 06:14:12;;;;;;;25.53;7.90;;;;;;;;;;5020704;28;20018;-76
2023/10/27 06:16:38;;;;;;;27.57;9.53;;;;;;;;;;5020457;28;20038;-76
2023/10/27 06:19:04;;;;;;;28.70;9.53;;;;;;;;;;5031174;28;20030;-76
2023/10/27 06:21:32;;;;;;;27.10;8.87;;;;;;;;;;5018901;28;20026;-76
2023/10/27 06:23:58;;;;;;;22.90;8.70;;;;;;;;;;5037093;28;20010;-77
2023/10/27 06:26:25;;;;;;;23.90;8.93;;;;;;;;;;5034864;28;20056;-76
2023/10/27 06:28:52;;;;;;;36.27;9.33;;;;;;;;;;5035871;28;20056;-75
2023/10/27 06:31:26;;;;;;;25.40;7.83;;;;;;;;;;5017999;28;20117;-76
2023/10/27 06:33:59;;;;;;;25.93;8.10;;;;;;;;;;5034105;28;20049;-77
2023/10/27 06:36:29;;;;;;;27.07;8.77;;;;;;;;;;5017451;28;20021;-77
2023/10/27 06:38:57;;;;;;;22.43;8.73;;;;;;;;;;5034472;28;20038;-75
2023/10/27 06:41:23;;;;;;;26.80;10.00;;;;;;;;;;5018322;28;20018;-75
2023/10/27 06:43:52;;;;;;;20.73;8.43;;;;;;;;;;5038811;28;20026;-76
2023/10/27 06:46:18;;;;;;;30.10;9.13;;;;;;;;;;5033450;28;20046;-76
2023/10/27 06:48:44;;;;;;;27.07;8.67;;;;;;;;;;5033417;28;20018;-76
2023/10/27 06:51:10;;;;;;;25.30;8.50;;;;;;;;;;5033105;28;20049;-76
2023/10/27 06:53:36;;;;;;;19.03;7.67;;;;;;;;;;5015820;28;20086;-76
2023/10/27 06:56:12;;;;;;;27.90;8.23;;;;;;;;;;5015639;28;20041;-75
2023/10/27 06:58:40;;;;;;;26.17;8.63;;;;;;;;;;5027591;28;20013;-76
2023/10/27 07:01:10;;;;;;;21.63;7.70;;;;;;;;;;5015774;28;20014;-77
2023/10/27 07:03:37;;;;;;;25.23;8.83;;;;;;;;;;5032734;28;20065;-75
2023/10/27 07:06:06;;;;;;;19.13;8.20;;;;;;;;;;5014761;28;20044;-76
2023/10/27 07:08:34;;;;;;;22.57;8.07;;;;;;;;;;5015030;28;20057;-75
2023/10/27 07:11:00;;;;;;;23.63;8.33;;;;;;;;;;5030446;28;20044;-75
2023/10/27 07:13:30;;;;;;;28.27;9.60;;;;;;;;;;5015742;28;20089;-75
2023/10/27 07:15:56;;;;;;;27.00;8.73;;;;;;;;;;5015633;28;20073;-75
2023/10/27 07:18:24;;;;;;;29.40;8.10;;;;;;;;;;5033541;28;20040;-76
2023/10/27 07:20:53;;;;;;;22.43;7.83;;;;;;;;;;5031496;28;20014;-77
2023/10/27 07:23:21;;;;;;;17.33;7.83;;;;;;;;;;5016484;28;20018;-75
2023/10/27 07:25:47;;;;;;;19.27;7.60;;;;;;;;;;5014142;28;20026;-77
2023/10/27 07:28:18;;;;;;;18.80;7.17;;;;;;;;;;5036366;28;20163;-75
2023/10/27 07:30:54;;;;;;;15.63;7.07;;;;;;;;;;5032424;28;20064;-76
2023/10/27 07:33:20;;;;;;;21.30;7.53;;;;;;;;;;5033295;28;20045;-75
2023/10/27 07:35:49;;;;;;;21.57;7.83;;;;;;;;;;5019520;28;20107;-75
2023/10/27 07:38:17;;;;;;;16.73;7.20;;;;;;;;;;5018639;28;20025;-75
2023/10/27 07:40:44;;;;;;;19.80;6.83;;;;;;;;;;5018610;28;20036;-75
2023/10/27 07:43:10;;;;;;;17.87;7.00;;;;;;;;;;5018468;28;20018;-76
2023/10/27 07:45:38;;;;;;;22.40;6.70;;;;;;;;;;5036257;28;20093;-76
2023/10/27 07:48:05;;;;;;;20.23;6.60;;;;;;;;;;5034882;28;20081;-75
2023/10/27 07:50:40;;;;;;;15.57;5.50;;;;;;;;;;5018532;28;20050;-76
2023/10/27 07:53:08;;;;;;;10.73;5.33;;;;;;;;;;5034365;28;20013;-76
2023/10/27 07:55:37;;;;;;;14.27;6.07;;;;;;;;;;5028567;28;20029;-76
2023/10/27 07:58:08;;;;;;;18.47;6.47;;;;;;;;;;5018698;28;20014;-75
2023/10/27 08:00:34;;;;;;;14.43;6.93;;;;;;;;;;5031653;28;20034;-76
2023/10/27 08:03:04;;;;;;;16.13;7.30;;;;;;;;;;5018279;28;20064;-75
2023/10/27 08:05:30;;;;;;;13.90;7.13;;;;;;;;;;5034642;28;20095;-75
2023/10/27 08:07:59;;;;;;;14.37;6.77;;;;;;;;;;5018632;28;20014;-75
2023/10/27 08:10:32;;;;;;;20.93;6.03;;;;;;;;;;5017735;28;20038;-76
2023/10/27 08:12:58;;;;;;;13.27;5.77;;;;;;;;;;5033736;28;20030;-76
2023/10/27 08:15:24;;;;;;;10.80;5.70;;;;;;;;;;5018075;28;20026;-76
2023/10/27 08:17:53;;;;;;;12.47;5.33;;;;;;;;;;5031392;28;20144;-75
2023/10/27 08:20:19;;;;;;;17.50;6.40;;;;;;;;;;5035426;28;20041;-76
2023/10/27 08:22:45;;;;;;;18.23;5.87;;;;;;;;;;5018235;28;20018;-75
2023/10/27 08:25:14;;;;;;;18.53;4.93;;;;;;;;;;5016528;28;20053;-75
2023/10/27 08:27:40;;;;;;;17.63;4.70;;;;;;;;;;5029573;28;20030;-76
2023/10/27 08:30:06;;;;;;;13.80;4.60;;;;;;;;;;5015019;28;20061;-75
2023/10/27 08:32:37;;;;;;;10.60;4.20;;;;;;;;;;5034316;28;20017;-76
2023/10/27 08:35:06;;;;;;;8.53;3.90;;;;;;;;;;5029740;28;20042;-75
2023/10/27 08:37:32;;;;;;;7.10;3.73;;;;;;;;;;5017228;28;20014;-76
2023/10/27 08:40:12;;;;;;;11.60;4.27;;;;;;;;;;5033711;28;20053;-75
2023/10/27 08:42:39;;;;;;;10.30;3.70;;;;;;;;;;5029082;28;20034;-76
2023/10/27 08:45:11;;;;;;;7.90;3.13;;;;;;;;;;5035848;28;20030;-76
2023/10/27 08:47:37;;;;;;;7.73;3.20;;;;;;;;;;5018361;28;20030;-76
2023/10/27 08:50:06;;;;;;;5.63;2.53;;;;;;;;;;5019288;28;20025;-76
2023/10/27 08:52:33;;;;;;;9.53;3.73;;;;;;;;;;5034762;28;20076;-75
2023/10/27 08:55:07;;;;;;;7.63;2.53;;;;;;;;;;5037087;28;20018;-75
2023/10/27 08:57:42;;;;;;;8.60;3.17;;;;;;;;;;5019982;28;20037;-76
2023/10/27 09:00:10;;;;;;;11.97;3.33;;;;;;;;;;5019211;28;20038;-75
2023/10/27 09:02:36;;;;;;;5.80;2.27;;;;;;;;;;5019215;28;20033;-78
2023/10/27 09:05:06;;;;;;;8.03;2.90;;;;;;;;;;5018798;28;20021;-76
2023/10/27 09:07:34;;;;;;;5.93;2.07;;;;;;;;;;5018642;28;20026;-76
2023/10/27 09:10:04;;;;;;;7.67;2.43;;;;;;;;;;5019527;28;20018;-76
2023/10/27 09:12:38;;;;;;;8.40;2.07;;;;;;;;;;5037104;28;20009;-76
2023/10/27 09:15:13;;;;;;;4.87;2.40;;;;;;;;;;5018471;28;20032;-75
2023/10/27 09:17:57;;;;;;;6.93;2.33;;;;;;;;;;5035740;28;20038;-76
2023/10/27 09:20:26;;;;;;;5.43;2.23;;;;;;;;;;5036459;28;20017;-76
2023/10/27 09:22:56;;;;;;;5.67;2.23;;;;;;;;;;5036504;28;20049;-75
2023/10/27 09:25:28;;;;;;;6.83;2.30;;;;;;;;;;5017105;28;20231;-76
2023/10/27 09:27:58;;;;;;;4.75;2.05;;;;;;;;;;5018913;28;20088;-77
2023/10/27 09:30:27;;;;;;;4.53;1.50;;;;;;;;;;5016873;28;20101;-76
2023/10/27 09:33:03;;;;;;;;;;;;;;;;;;;;;
2023/10/27 09:35:32;;;;;;;4.53;1.83;;;;;;;;;;5036260;28;20045;-76
2023/10/27 09:37:59;;;;;;;4.47;2.00;;;;;;;;;;5033298;28;21155;-77
2023/10/27 09:40:30;;;;;;;9.03;2.53;;;;;;;;;;5017221;28;20267;-75
2023/10/27 09:42:58;;;;;;;9.03;2.17;;;;;;;;;;5017146;28;20205;-76
2023/10/27 09:45:29;;;;;;;11.67;2.77;;;;;;;;;;5034375;28;20097;-75
2023/10/27 09:48:02;;;;;;;6.45;2.85;;;;;;;;;;5017732;28;20041;-76
2023/10/27 09:50:31;;;;;;;7.40;2.60;;;;;;;;;;5033626;28;20029;-76
2023/10/27 09:53:01;;;;;;;7.13;1.80;;;;;;;;;;5016741;28;20026;-76
2023/10/27 09:55:28;;;;;;;5.13;1.90;;;;;;;;;;5036094;28;20017;-75
2023/10/27 09:58:04;;;;;;;;;;;;;;;;;;;;;
2023/10/27 10:00:31;;;;;;;6.47;2.23;;;;;;;;;;5035907;28;20041;-76
2023/10/27 10:03:10;;;;;;;;;;;;;;;;;;;;;
2023/10/27 10:05:55;;;;;;;5.40;2.37;;;;;;;;;;5036113;28;20056;-76
2023/10/27 10:08:25;;;;;;;4.20;2.20;;;;;;;;;;5016890;28;20025;-76
2023/10/27 10:11:17;;;;;;;5.43;1.83;;;;;;;;;;5019441;28;20025;-76
2023/10/27 10:13:48;;;;;;;5.23;2.13;;;;;;;;;;5037322;28;20101;-76
2023/10/27 10:16:17;;;;;;;6.53;2.37;;;;;;;;;;5033657;28;20097;-76
2023/10/27 10:18:55;;;;;;;7.53;2.60;;;;;;;;;;5016491;28;20105;-76
2023/10/27 10:21:38;;;;;;;2.80;2.10;;;;;;;;;;5034201;28;20025;-75
2023/10/27 10:24:10;;;;;;;5.40;2.60;;;;;;;;;;5017465;28;20026;-76
2023/10/27 10:26:55;;;;;;;5.45;2.35;;;;;;;;;;5035035;28;20041;-76
2023/10/27 10:29:33;;;;;;;5.07;2.37;;;;;;;;;;5032179;28;20033;-76
2023/10/27 10:32:18;;;;;;;6.03;2.83;;;;;;;;;;5035323;28;20022;-75
2023/10/27 10:35:06;;;;;;;6.87;3.27;;;;;;;;;;5032971;28;20022;-76
2023/10/27 10:37:39;;;;;;;6.07;2.80;;;;;;;;;;5016240;28;20034;-75
2023/10/27 10:40:26;;;;;;;7.60;3.00;;;;;;;;;;5017854;28;20022;-77
2023/10/27 10:43:11;;;;;;;7.80;3.53;;;;;;;;;;5019528;28;20048;-76
2023/10/27 10:45:44;;;;;;;8.23;3.47;;;;;;;;;;5036955;28;20022;-75
2023/10/27 10:48:13;;;;;;;7.30;3.50;;;;;;;;;;5020615;28;20021;-76
2023/10/27 10:50:39;;;;;;;9.73;3.73;;;;;;;;;;5019803;28;20026;-76
2023/10/27 10:53:17;;;;;;;6.20;4.07;;;;;;;;;;5023989;28;20041;-76
2023/10/27 10:55:44;;;;;;;11.90;3.50;;;;;;;;;;5024521;28;20018;-77
2023/10/27 10:58:10;;;;;;;8.83;3.77;;;;;;;;;;5024328;28;20014;-76
2023/10/27 11:00:41;;;;;;;8.70;3.57;;;;;;;;;;5024486;28;20025;-76
2023/10/27 11:03:11;;;;;;;8.67;3.80;;;;;;;;;;5023028;28;20014;-76
2023/10/27 11:05:37;;;;;;;8.23;3.77;;;;;;;;;;5024025;28;20033;-76
2023/10/27 11:08:03;;;;;;;8.83;3.93;;;;;;;;;;5024090;28;20018;-77
2023/10/27 11:10:32;;;;;;;7.50;3.53;;;;;;;;;;5023967;28;20009;-77
2023/10/27 11:13:09;;;;;;;10.25;2.90;;;;;;;;;;5024199;28;20029;-76
2023/10/27 11:15:41;;;;;;;13.43;3.73;;;;;;;;;;5023484;28;20006;-76
2023/10/27 11:18:08;;;;;;;10.10;3.03;;;;;;;;;;5040913;28;20044;-76
2023/10/27 11:20:39;;;;;;;8.85;3.45;;;;;;;;;;5022213;28;20081;-76
2023/10/27 11:23:18;;;;;;;13.45;3.53;;;;;;;;;;5023785;28;20034;-76
2023/10/27 11:25:45;;;;;;;12.20;3.17;;;;;;;;;;5023579;28;20041;-76
2023/10/27 11:28:36;;;;;;;11.07;3.47;;;;;;;;;;5023581;28;20041;-75
2023/10/27 11:31:16;;;;;;;6.20;3.03;;;;;;;;;;5022689;28;20033;-76
2023/10/27 11:34:03;;;;;;;9.20;3.63;;;;;;;;;;5019742;28;20022;-76
2023/10/27 11:36:47;;;;;;;9.43;3.30;;;;;;;;;;5040352;28;20026;-76
2023/10/27 11:39:17;;;;;;;8.27;2.58;;;;;;;;;;5022185;28;20025;-77
2023/10/27 11:41:48;;;;;;;9.35;2.67;;;;;;;;;;5022928;28;20037;-77
2023/10/27 11:44:14;;;;;;;8.32;3.10;;;;;;;;;;5019874;28;20041;-76
2023/10/27 11:46:50;;;;;;;11.10;3.08;;;;;;;;;;5024047;28;20026;-76
2023/10/27 11:49:17;;;;;;;8.93;2.83;;;;;;;;;;5023261;28;20024;-78
2023/10/27 11:51:48;;;;;;;11.18;3.20;;;;;;;;;;5028781;28;20029;-75
2023/10/27 11:54:17;;;;;;;8.85;2.53;;;;;;;;;;5023839;28;20018;-76
2023/10/27 11:56:43;;;;;;;6.47;2.30;;;;;;;;;;5023963;28;20024;-76
2023/10/27 11:59:10;;;;;;;13.60;3.20;;;;;;;;;;5040538;28;20018;-75
2023/10/27 12:01:41;;;;;;;13.97;3.00;;;;;;;;;;5023942;28;20076;-76
2023/10/27 12:04:09;;;;;;;17.42;3.20;;;;;;;;;;5039050;28;20038;-75
2023/10/27 12:06:35;;;;;;;17.23;3.40;;;;;;;;;;5040650;28;20018;-75
2023/10/27 12:09:02;;;;;;;14.10;3.47;;;;;;;;;;5023835;28;20014;-75
2023/10/27 12:11:30;;;;;;;2.93;1.43;;;;;;;;;;5023792;28;20041;-75
2023/10/27 12:13:59;;;;;;;16.60;3.70;;;;;;;;;;5022481;28;20041;-76
2023/10/27 12:16:34;;;;;;;16.00;3.53;;;;;;;;;;5023742;28;20029;-76
2023/10/27 12:19:01;;;;;;;14.77;3.63;;;;;;;;;;5027622;28;20032;-76
2023/10/27 12:21:27;;;;;;;13.00;3.90;;;;;;;;;;5037859;28;20022;-75
2023/10/27 12:23:56;;;;;;;15.27;4.63;;;;;;;;;;5021516;28;20043;-75
2023/10/27 12:26:24;;;;;;;21.17;4.97;;;;;;;;;;5019717;28;20068;-75
2023/10/27 12:29:10;;;;;;;26.57;4.90;;;;;;;;;;5019912;28;20022;-75
2023/10/27 12:31:36;;;;;;;17.97;5.10;;;;;;;;;;5018680;28;20038;-76
2023/10/27 12:34:03;;;;;;;14.53;4.07;;;;;;;;;;5019260;28;20037;-75
2023/10/27 12:36:29;;;;;;;15.57;3.73;;;;;;;;;;5021242;28;20026;-75
2023/10/27 12:38:55;;;;;;;13.50;3.60;;;;;;;;;;5020330;28;20018;-75
2023/10/27 12:41:24;;;;;;;11.93;3.30;;;;;;;;;;5037738;28;20022;-75
2023/10/27 12:43:50;;;;;;;9.33;2.93;;;;;;;;;;5020338;28;20100;-75
2023/10/27 12:46:18;;;;;;;8.73;2.50;;;;;;;;;;5018263;28;20037;-75
2023/10/27 12:48:47;;;;;;;14.47;3.53;;;;;;;;;;5036440;28;20034;-76
2023/10/27 12:51:13;;;;;;;11.30;3.27;;;;;;;;;;5015973;28;20026;-75
2023/10/27 12:53:39;;;;;;;9.63;2.20;;;;;;;;;;5016628;28;20080;-75
2023/10/27 12:56:07;;;;;;;5.97;2.07;;;;;;;;;;5033961;28;20041;-75
2023/10/27 12:58:34;;;;;;;9.13;2.17;;;;;;;;;;5016761;28;20022;-75
2023/10/27 13:01:00;;;;;;;9.60;2.80;;;;;;;;;;5033081;28;20068;-75
2023/10/27 13:03:33;;;;;;;10.80;3.27;;;;;;;;;;5010758;28;20014;-75
2023/10/27 13:05:59;;;;;;;12.23;3.07;;;;;;;;;;5027670;28;20145;-75
2023/10/27 13:08:28;;;;;;;12.80;2.80;;;;;;;;;;5015882;28;20053;-75
2023/10/27 13:10:59;;;;;;;7.70;2.13;;;;;;;;;;5033722;28;20041;-75
2023/10/27 13:13:29;;;;;;;11.97;2.40;;;;;;;;;;5015684;28;20022;-75
2023/10/27 13:15:57;;;;;;;10.17;2.60;;;;;;;;;;5032201;28;20060;-75
2023/10/27 13:18:25;;;;;;;9.57;2.77;;;;;;;;;;5033523;28;20010;-75
2023/10/27 13:20:51;;;;;;;13.80;4.50;;;;;;;;;;5030049;28;20029;-75
2023/10/27 13:23:17;;;;;;;12.67;3.20;;;;;;;;;;5015420;28;20029;-75
2023/10/27 13:25:50;;;;;;;10.00;2.97;;;;;;;;;;5032876;28;20084;-75
2023/10/27 13:28:19;;;;;;;13.50;3.03;;;;;;;;;;5012189;28;20033;-75
2023/10/27 13:30:55;;;;;;;13.73;2.37;;;;;;;;;;5033583;28;20418;-75
2023/10/27 13:33:21;;;;;;;12.90;3.00;;;;;;;;;;5031365;28;20022;-75
2023/10/27 13:35:49;;;;;;;8.47;2.37;;;;;;;;;;5015332;28;20093;-75
2023/10/27 13:38:15;;;;;;;13.00;3.10;;;;;;;;;;5033098;28;20018;-75
2023/10/27 13:40:50;;;;;;;11.07;2.00;;;;;;;;;;5033309;28;20089;-75
2023/10/27 13:43:21;;;;;;;12.67;2.73;;;;;;;;;;5032056;28;20034;-75
2023/10/27 13:45:49;;;;;;;10.53;2.00;;;;;;;;;;5033384;28;20030;-75
2023/10/27 13:48:16;;;;;;;6.57;2.13;;;;;;;;;;5011450;28;20014;-75
2023/10/27 13:50:43;;;;;;;5.90;2.40;;;;;;;;;;5033322;28;20041;-75
2023/10/27 13:53:19;;;;;;;9.67;1.80;;;;;;;;;;5011212;28;20010;-76
2023/10/27 13:55:48;;;;;;;9.43;2.40;;;;;;;;;;5033474;28;20030;-75
2023/10/27 13:58:18;;;;;;;11.60;2.57;;;;;;;;;;5016304;28;20030;-76
2023/10/27 14:00:44;;;;;;;8.60;1.97;;;;;;;;;;5028471;28;20044;-75
2023/10/27 14:03:12;;;;;;;6.60;2.50;;;;;;;;;;5013154;28;20022;-75
2023/10/27 14:05:49;;;;;;;6.57;2.23;;;;;;;;;;5016185;28;20041;-75
2023/10/27 14:08:22;;;;;;;14.47;3.27;;;;;;;;;;5015435;28;20022;-75
2023/10/27 14:10:53;;;;;;;11.77;4.10;;;;;;;;;;5033833;28;20022;-75
2023/10/27 14:13:21;;;;;;;12.50;3.43;;;;;;;;;;5030301;28;20014;-76
2023/10/27 14:15:47;;;;;;;9.73;3.13;;;;;;;;;;5015657;28;20125;-75
2023/10/27 14:18:14;;;;;;;12.03;3.43;;;;;;;;;;5032400;28;20037;-75
2023/10/27 14:20:41;;;;;;;14.50;3.17;;;;;;;;;;5031989;28;20018;-75
2023/10/27 14:23:16;;;;;;;10.37;3.00;;;;;;;;;;5015610;28;20033;-75
2023/10/27 14:25:45;;;;;;;7.47;2.97;;;;;;;;;;5031074;28;20025;-75
2023/10/27 14:28:14;;;;;;;44.80;5.80;;;;;;;;;;5036171;28;20021;-75
2023/10/27 14:30:40;;;;;;;11.70;3.30;;;;;;;;;;5036696;28;20014;-75
2023/10/27 14:33:06;;;;;;;12.03;3.40;;;;;;;;;;5020583;28;20231;-75
2023/10/27 14:35:33;;;;;;;8.57;3.30;;;;;;;;;;5020118;28;20057;-75
2023/10/27 14:37:59;;;;;;;11.23;3.60;;;;;;;;;;5019370;28;20025;-76
2023/10/27 14:40:27;;;;;;;10.93;3.40;;;;;;;;;;5032810;28;20128;-75
2023/10/27 14:42:59;;;;;;;12.97;2.90;;;;;;;;;;5038163;28;20036;-75
2023/10/27 14:45:30;;;;;;;12.88;3.55;;;;;;;;;;5020615;28;20033;-75
2023/10/27 14:47:58;;;;;;;11.90;3.30;;;;;;;;;;5020703;28;20048;-75
2023/10/27 14:50:41;;;;;;;14.30;2.80;;;;;;;;;;5020855;28;20052;-75
2023/10/27 14:53:09;;;;;;;14.32;3.40;;;;;;;;;;5038940;28;20054;-75